createdAt,value
2019-01-31T00:01:38.451Z,77.30
2019-01-31T00:05:25.064Z,77.40
2019-01-31T00:09:00.960Z,77.60
2019-01-31T00:12:34.513Z,77.70
2019-01-31T00:15:50.152Z,78.00
2019-01-31T00:19:29.737Z,77.80
2019-01-31T00:23:10.265Z,77.80
2019-01-31T00:26:49.364Z,77.90
2019-01-31T00:30:34.268Z,78.10
2019-01-31T00:33:49.619Z,78.20
2019-01-31T00:37:26.053Z,77.60
2019-01-31T00:40:42.033Z,77.30
2019-01-31T00:44:15.220Z,77.30
2019-01-31T00:47:45.964Z,77.30
2019-01-31T00:51:12.102Z,77.20
2019-01-31T00:54:54.253Z,77.00
2019-01-31T00:58:40.319Z,76.70
2019-01-31T01:02:03.747Z,76.90
2019-01-31T01:06:07.170Z,76.60
2019-01-31T01:09:20.644Z,76.70
2019-01-31T01:13:18.040Z,77.00
2019-01-31T01:16:55.267Z,77.00
2019-01-31T01:20:31.761Z,76.80
2019-01-31T01:24:04.352Z,76.70
2019-01-31T01:27:45.940Z,77.10
2019-01-31T01:31:44.151Z,77.70
2019-01-31T01:35:26.240Z,77.50
2019-01-31T01:39:07.127Z,77.90
2019-01-31T01:42:38.623Z,78.20
2019-01-31T01:46:14.754Z,78.30
2019-01-31T01:49:34.741Z,78.90
2019-01-31T01:53:17.683Z,78.30
2019-01-31T01:57:04.172Z,78.20
2019-01-31T02:00:49.867Z,78.20
2019-01-31T02:04:23.766Z,78.20
2019-01-31T02:07:42.946Z,78.20
2019-01-31T02:11:32.104Z,78.20
2019-01-31T02:15:13.541Z,78.20
2019-01-31T02:18:39.902Z,77.80
2019-01-31T02:22:16.207Z,77.70
2019-01-31T02:25:43.179Z,77.70
2019-01-31T02:29:36.231Z,78.00
2019-01-31T02:33:06.721Z,78.40
2019-01-31T02:36:40.517Z,77.90
2019-01-31T02:40:18.074Z,77.90
2019-01-31T02:43:33.792Z,77.90
2019-01-31T02:47:31.791Z,78.00
2019-01-31T02:50:56.223Z,77.80
2019-01-31T02:54:13.926Z,77.30
2019-01-31T02:58:11.883Z,77.30
2019-01-31T03:01:43.263Z,77.40
2019-01-31T03:05:22.653Z,77.40
2019-01-31T03:08:38.065Z,77.40
2019-01-31T03:12:13.306Z,77.30
2019-01-31T03:15:50.201Z,77.20
2019-01-31T03:19:03.839Z,77.10
2019-01-31T03:22:18.851Z,76.90
2019-01-31T03:26:03.131Z,77.50
2019-01-31T03:29:44.565Z,76.80
2019-01-31T03:33:00.688Z,77.00
2019-01-31T03:36:25.373Z,76.90
2019-01-31T03:40:06.604Z,77.40
2019-01-31T03:43:13.475Z,77.60
2019-01-31T03:46:50.937Z,78.10
2019-01-31T03:50:26.583Z,77.60
2019-01-31T03:53:57.617Z,77.50
2019-01-31T03:57:18.060Z,77.50
2019-01-31T04:01:03.701Z,77.40
2019-01-31T04:04:22.845Z,76.80
2019-01-31T04:07:27.748Z,76.60
2019-01-31T04:10:32.741Z,76.70
2019-01-31T04:13:37.707Z,76.70
2019-01-31T04:16:42.832Z,77.20
2019-01-31T04:19:47.789Z,77.40
2019-01-31T04:22:52.920Z,78.30
2019-01-31T04:25:57.966Z,78.80
2019-01-31T04:29:03.053Z,79.00
2019-01-31T04:32:07.939Z,79.40
2019-01-31T04:35:14.118Z,79.70
2019-01-31T04:38:19.946Z,80.50
2019-01-31T04:41:25.179Z,80.60
2019-01-31T04:44:30.163Z,80.60
2019-01-31T04:47:41.185Z,80.10
2019-01-31T04:50:46.154Z,79.90
2019-01-31T04:53:51.046Z,80.30
2019-01-31T04:56:55.947Z,80.60
2019-01-31T05:00:01.052Z,80.60
2019-01-31T05:03:06.003Z,81.10
2019-01-31T05:06:11.088Z,81.00
2019-01-31T05:09:16.003Z,80.90
2019-01-31T05:12:20.844Z,80.80
2019-01-31T05:15:25.793Z,80.40
2019-01-31T05:18:30.753Z,80.10
2019-01-31T05:21:35.820Z,79.80
2019-01-31T05:24:41.086Z,80.10
2019-01-31T05:27:46.103Z,80.10
2019-01-31T05:30:51.374Z,80.20
2019-01-31T05:33:56.305Z,80.10
2019-01-31T05:37:01.448Z,80.20
2019-01-31T05:40:07.732Z,80.20
2019-01-31T05:43:12.808Z,80.30
2019-01-31T05:46:18.394Z,80.40
2019-01-31T05:49:23.477Z,80.40
2019-01-31T05:52:28.396Z,80.20
2019-01-31T05:55:33.613Z,80.00
2019-01-31T05:58:38.652Z,79.80
2019-01-31T06:01:43.566Z,79.90
2019-01-31T06:04:48.640Z,79.90
2019-01-31T06:07:53.929Z,79.20
2019-01-31T06:11:07.519Z,79.70
2019-01-31T06:14:12.969Z,79.70
2019-01-31T06:17:17.920Z,79.80
2019-01-31T06:20:24.551Z,79.50
2019-01-31T06:23:29.541Z,79.70
2019-01-31T06:26:34.764Z,79.40
2019-01-31T06:29:39.795Z,80.00
2019-01-31T06:32:45.389Z,79.80
2019-01-31T06:35:50.336Z,79.70
2019-01-31T06:38:55.280Z,79.80
2019-01-31T06:42:00.250Z,80.00
2019-01-31T06:45:09.039Z,79.90
2019-01-31T06:48:13.964Z,80.00
2019-01-31T06:51:18.970Z,79.50
2019-01-31T06:54:24.096Z,79.30
2019-01-31T06:57:29.165Z,78.90
2019-01-31T07:00:34.417Z,79.30
2019-01-31T07:03:39.332Z,79.10
2019-01-31T07:06:44.476Z,78.80
2019-01-31T07:09:49.515Z,78.40
2019-01-31T07:12:54.781Z,78.60
2019-01-31T07:15:59.642Z,78.80
2019-01-31T07:19:04.866Z,78.40
2019-01-31T07:22:09.906Z,78.30
2019-01-31T07:25:18.622Z,78.70
2019-01-31T07:28:23.576Z,79.40
2019-01-31T07:31:28.675Z,79.50
2019-01-31T07:34:33.757Z,79.80
2019-01-31T07:37:38.757Z,79.90
2019-01-31T07:40:43.766Z,80.40
2019-01-31T07:43:48.777Z,79.80
2019-01-31T07:47:12.633Z,79.60
2019-01-31T07:50:17.788Z,79.60
2019-01-31T07:53:22.906Z,80.00
2019-01-31T07:56:27.790Z,79.50
2019-01-31T07:59:32.798Z,79.50
2019-01-31T08:02:37.839Z,78.90
2019-01-31T08:05:43.020Z,77.90
2019-01-31T08:08:47.937Z,77.50
2019-01-31T08:11:53.080Z,77.60
2019-01-31T08:14:58.068Z,77.70
2019-01-31T08:18:03.096Z,77.80
2019-01-31T08:21:11.156Z,77.80
2019-01-31T08:24:16.112Z,77.80
2019-01-31T08:27:22.673Z,77.90
2019-01-31T08:30:30.375Z,77.40
2019-01-31T08:33:35.382Z,76.80
2019-01-31T08:36:40.354Z,77.30
2019-01-31T08:39:45.346Z,77.70
2019-01-31T08:42:50.514Z,78.10
2019-01-31T08:45:55.611Z,78.60
2019-01-31T08:49:01.110Z,78.20
2019-01-31T08:52:06.318Z,76.50
2019-01-31T08:55:11.880Z,76.30
2019-01-31T08:58:17.029Z,75.10
2019-01-31T09:01:22.153Z,74.20
2019-01-31T09:04:27.195Z,74.10
2019-01-31T09:07:32.446Z,74.80
2019-01-31T09:10:39.161Z,74.80
2019-01-31T09:13:46.595Z,72.50
2019-01-31T09:16:51.488Z,71.50
2019-01-31T09:19:56.421Z,72.60
2019-01-31T09:23:41.389Z,71.10
2019-01-31T09:27:18.479Z,70.70
2019-01-31T09:31:07.430Z,70.80
2019-01-31T09:34:37.270Z,70.70
2019-01-31T09:38:17.109Z,70.70
2019-01-31T09:41:57.042Z,70.30
2019-01-31T09:45:36.789Z,69.20
2019-01-31T09:49:28.284Z,69.10
2019-01-31T09:53:15.140Z,68.60
2019-01-31T09:57:21.948Z,67.90
2019-01-31T10:01:06.600Z,67.40
2019-01-31T10:05:19.417Z,66.90
2019-01-31T10:08:57.201Z,66.00
2019-01-31T10:12:58.157Z,65.80
2019-01-31T10:16:43.374Z,63.60
2019-01-31T10:20:29.554Z,60.90
2019-01-31T10:24:18.786Z,59.20
2019-01-31T10:28:00.138Z,58.40
2019-01-31T10:31:41.637Z,56.90
2019-01-31T10:35:36.922Z,55.90
2019-01-31T10:39:17.535Z,55.30
2019-01-31T10:42:50.535Z,53.10
2019-01-31T10:46:17.037Z,53.10
2019-01-31T10:50:24.149Z,54.00
2019-01-31T10:53:53.886Z,55.60
2019-01-31T10:57:34.445Z,58.10
2019-01-31T11:01:12.516Z,59.30
2019-01-31T11:04:49.307Z,60.20
2019-01-31T11:08:06.461Z,61.20
2019-01-31T11:11:18.387Z,61.90
2019-01-31T11:14:59.013Z,62.50
2019-01-31T11:18:37.065Z,61.50
2019-01-31T11:22:22.850Z,61.50
2019-01-31T11:26:10.286Z,61.40
2019-01-31T11:30:08.674Z,61.00
2019-01-31T11:33:53.605Z,60.90
2019-01-31T11:37:24.489Z,61.70
2019-01-31T11:41:01.009Z,61.80
2019-01-31T11:44:59.148Z,62.20
2019-01-31T11:49:03.305Z,62.50
2019-01-31T11:52:43.062Z,62.60
2019-01-31T11:56:14.948Z,63.10
2019-01-31T11:59:20.021Z,63.60
2019-01-31T12:02:25.065Z,63.70
2019-01-31T12:05:30.237Z,64.00
2019-01-31T12:08:35.142Z,63.50
2019-01-31T12:11:40.285Z,63.80
2019-01-31T12:14:45.504Z,63.60
2019-01-31T12:17:50.509Z,62.80
2019-01-31T12:20:55.622Z,62.50
2019-01-31T12:24:00.573Z,63.20
2019-01-31T12:27:05.841Z,61.90
2019-01-31T12:30:15.776Z,61.20
2019-01-31T12:33:20.748Z,60.70
2019-01-31T12:36:25.524Z,60.50
2019-01-31T12:39:30.697Z,61.20
2019-01-31T12:42:35.465Z,61.70
2019-01-31T12:45:40.225Z,62.60
2019-01-31T12:48:44.982Z,63.60
2019-01-31T12:51:50.926Z,63.90
2019-01-31T12:54:55.915Z,63.00
2019-01-31T12:58:00.857Z,62.10
2019-01-31T13:01:06.400Z,60.90
2019-01-31T13:04:11.682Z,60.00
2019-01-31T13:07:16.931Z,59.80
2019-01-31T13:10:21.935Z,60.30
2019-01-31T13:13:27.216Z,60.20
2019-01-31T13:16:32.313Z,59.80
2019-01-31T13:19:37.555Z,60.60
2019-01-31T13:22:42.697Z,62.10
2019-01-31T13:25:49.668Z,62.80
2019-01-31T13:28:54.656Z,63.70
2019-01-31T13:31:59.916Z,65.40
2019-01-31T13:35:05.206Z,65.80
2019-01-31T13:38:10.889Z,66.10
2019-01-31T13:41:16.051Z,66.20
2019-01-31T13:44:23.079Z,66.70
2019-01-31T13:47:28.215Z,68.00
2019-01-31T13:50:33.677Z,68.90
2019-01-31T13:53:38.821Z,69.40
2019-01-31T13:56:45.692Z,69.50
2019-01-31T13:59:50.761Z,70.00
2019-01-31T14:02:56.017Z,69.90
2019-01-31T14:06:01.013Z,70.50
2019-01-31T14:09:09.590Z,70.00
2019-01-31T14:12:14.580Z,70.60
2019-01-31T14:15:32.907Z,71.10
2019-01-31T14:18:29.467Z,71.50
2019-01-31T14:21:34.522Z,71.50
2019-01-31T14:24:39.602Z,72.00
2019-01-31T14:27:44.987Z,72.30
2019-01-31T14:30:50.050Z,72.70
2019-01-31T14:33:55.368Z,73.00
2019-01-31T14:37:01.068Z,73.50
2019-01-31T14:40:06.808Z,74.10
2019-01-31T14:43:12.145Z,73.90
2019-01-31T14:46:17.390Z,74.30
2019-01-31T14:49:22.604Z,75.10
2019-01-31T14:52:28.013Z,75.00
2019-01-31T14:55:32.969Z,74.90
2019-01-31T14:58:38.446Z,75.20
2019-01-31T15:01:43.404Z,75.20
2019-01-31T15:04:48.557Z,75.50
2019-01-31T15:07:53.506Z,75.70
2019-01-31T15:10:58.498Z,76.20
2019-01-31T15:14:03.588Z,76.10
2019-01-31T15:17:08.580Z,76.00
2019-01-31T15:20:22.098Z,75.80
2019-01-31T15:23:27.691Z,76.30
2019-01-31T15:26:32.945Z,75.70
2019-01-31T15:29:37.875Z,76.20
2019-01-31T15:32:43.145Z,76.90
2019-01-31T15:35:48.155Z,77.20
2019-01-31T15:38:53.278Z,78.10
2019-01-31T15:41:58.323Z,78.60
2019-01-31T15:45:03.481Z,78.80
2019-01-31T15:48:10.838Z,79.20
2019-01-31T15:51:16.069Z,79.30
2019-01-31T15:54:21.609Z,79.60
2019-01-31T15:57:26.553Z,80.30
2019-01-31T16:00:45.053Z,80.50
2019-01-31T16:03:50.167Z,80.80
2019-01-31T16:06:55.558Z,80.50
2019-01-31T16:10:00.851Z,80.70
2019-01-31T16:13:06.344Z,81.10
2019-01-31T16:16:11.287Z,80.80
2019-01-31T16:19:16.292Z,80.80
2019-01-31T16:22:21.405Z,80.90
2019-01-31T16:25:26.356Z,80.80
2019-01-31T16:28:31.521Z,81.00
2019-01-31T16:31:36.485Z,81.20
2019-01-31T16:35:00.687Z,81.10
2019-01-31T16:38:06.413Z,81.50
2019-01-31T16:41:11.407Z,82.30
2019-01-31T16:44:17.526Z,82.30
2019-01-31T16:47:22.609Z,82.60
2019-01-31T16:50:27.815Z,82.70
2019-01-31T16:53:32.857Z,82.50
2019-01-31T16:56:38.145Z,82.00
2019-01-31T16:59:43.145Z,81.90
2019-01-31T17:02:48.388Z,81.70
2019-01-31T17:05:53.501Z,81.30
2019-01-31T17:08:59.593Z,81.30
2019-01-31T17:12:04.701Z,81.30
2019-01-31T17:15:17.670Z,81.30
2019-01-31T17:18:16.685Z,81.10
2019-01-31T17:21:22.104Z,81.10
2019-01-31T17:24:26.789Z,81.10
2019-01-31T17:27:31.704Z,81.10
2019-01-31T17:30:36.799Z,81.00
2019-01-31T17:33:41.750Z,80.90
2019-01-31T17:36:46.669Z,80.80
2019-01-31T17:39:51.630Z,80.40
2019-01-31T17:42:56.646Z,80.80
2019-01-31T17:46:01.716Z,80.50
2019-01-31T17:49:06.926Z,80.10
2019-01-31T17:52:12.301Z,79.20
2019-01-31T17:55:19.952Z,79.20
2019-01-31T17:58:24.707Z,79.60
2019-01-31T18:01:29.685Z,79.70
2019-01-31T18:04:34.738Z,79.40
2019-01-31T18:07:39.525Z,79.30
2019-01-31T18:10:46.508Z,78.90
2019-01-31T18:13:52.740Z,78.70
2019-01-31T18:16:58.013Z,79.10
2019-01-31T18:20:03.151Z,79.00
2019-01-31T18:23:08.344Z,79.00
2019-01-31T18:26:13.383Z,78.90
2019-01-31T18:29:18.410Z,79.00
2019-01-31T18:32:23.449Z,79.00
2019-01-31T18:35:28.631Z,79.70
2019-01-31T18:38:33.507Z,79.70
2019-01-31T18:41:38.559Z,80.20
2019-01-31T18:44:43.919Z,80.40
2019-01-31T18:47:48.858Z,80.40
2019-01-31T18:50:54.133Z,80.70
2019-01-31T18:53:59.147Z,80.70
2019-01-31T18:57:04.182Z,80.80
2019-01-31T19:00:16.267Z,80.90
2019-01-31T19:03:21.184Z,81.30
2019-01-31T19:06:26.359Z,81.40
2019-01-31T19:09:31.400Z,81.50
2019-01-31T19:12:36.335Z,81.80
2019-01-31T19:15:41.817Z,81.80
2019-01-31T19:18:47.198Z,81.00
2019-01-31T19:21:52.591Z,81.00
2019-01-31T19:25:16.551Z,81.00
2019-01-31T19:28:22.401Z,80.70
2019-01-31T19:31:27.701Z,80.70
2019-01-31T19:34:32.769Z,80.80
2019-01-31T19:37:38.103Z,80.20
2019-01-31T19:40:45.595Z,79.80
2019-01-31T19:43:50.650Z,80.30
2019-01-31T19:46:55.707Z,80.20
2019-01-31T19:50:00.836Z,80.40
2019-01-31T19:53:06.282Z,80.30
2019-01-31T19:56:11.352Z,80.00
2019-01-31T19:59:16.496Z,80.20
2019-01-31T20:02:21.457Z,80.30
2019-01-31T20:05:26.743Z,80.90
2019-01-31T20:08:31.861Z,80.90
2019-01-31T20:11:37.113Z,80.50
2019-01-31T20:14:42.125Z,80.40
2019-01-31T20:17:47.576Z,80.40
2019-01-31T20:20:52.797Z,80.10
2019-01-31T20:23:58.112Z,80.40
2019-01-31T20:27:03.384Z,80.60
2019-01-31T20:30:09.439Z,79.90
2019-01-31T20:33:15.022Z,79.80
2019-01-31T20:36:20.290Z,79.90
2019-01-31T20:39:25.475Z,80.20
2019-01-31T20:42:35.455Z,79.80
2019-01-31T20:45:40.720Z,79.60
2019-01-31T20:48:45.988Z,79.80
2019-01-31T20:51:51.213Z,79.50
2019-01-31T20:54:56.345Z,79.10
2019-01-31T20:58:01.400Z,79.10
2019-01-31T21:01:07.881Z,78.80
2019-01-31T21:04:13.968Z,78.60
2019-01-31T21:07:19.284Z,77.70
2019-01-31T21:10:26.326Z,77.80
2019-01-31T21:13:31.430Z,77.90
2019-01-31T21:16:36.393Z,78.00
2019-01-31T21:19:41.485Z,77.70
2019-01-31T21:22:46.925Z,76.70
2019-01-31T21:25:52.941Z,75.70
2019-01-31T21:28:58.183Z,75.10
2019-01-31T21:32:03.322Z,75.10
2019-01-31T21:35:08.984Z,76.30
2019-01-31T21:38:14.601Z,77.10
2019-01-31T21:41:19.744Z,77.60
2019-01-31T21:44:24.897Z,77.90
2019-01-31T21:47:30.854Z,77.40
2019-01-31T21:50:41.404Z,77.70
2019-01-31T21:53:46.723Z,77.90
2019-01-31T21:56:51.836Z,76.30
2019-01-31T21:59:56.730Z,76.50
2019-01-31T22:03:01.923Z,77.00
2019-01-31T22:06:07.076Z,76.60
2019-01-31T22:09:12.379Z,75.90
2019-01-31T22:12:17.904Z,76.20
2019-01-31T22:15:25.566Z,76.40
2019-01-31T22:18:30.578Z,76.80
2019-01-31T22:21:37.963Z,76.30
2019-01-31T22:24:44.245Z,75.70
2019-01-31T22:27:49.624Z,75.80
2019-01-31T22:30:56.985Z,76.20
2019-01-31T22:34:06.452Z,76.10
2019-01-31T22:37:11.651Z,75.30
2019-01-31T22:40:17.054Z,75.30
2019-01-31T22:43:22.022Z,75.30
2019-01-31T22:46:28.003Z,75.10
2019-01-31T22:49:36.717Z,75.10
2019-01-31T22:52:42.215Z,74.70
2019-01-31T22:55:47.736Z,74.40
2019-01-31T22:58:52.819Z,74.70
2019-01-31T23:02:05.127Z,75.10
2019-01-31T23:05:11.437Z,74.90
2019-01-31T23:08:18.681Z,75.00
2019-01-31T23:11:23.926Z,74.90
2019-01-31T23:14:29.029Z,74.90
2019-01-31T23:17:37.239Z,74.40
2019-01-31T23:20:44.473Z,74.60
2019-01-31T23:23:49.864Z,75.30
2019-01-31T23:26:54.848Z,75.90
2019-01-31T23:30:00.147Z,76.20
2019-01-31T23:33:06.006Z,75.20
2019-01-31T23:36:11.295Z,75.40
2019-01-31T23:39:16.306Z,75.30
2019-01-31T23:42:21.556Z,75.30
2019-01-31T23:45:26.589Z,75.80
2019-01-31T23:48:32.346Z,76.50
2019-01-31T23:51:37.296Z,76.60
2019-01-31T23:54:42.253Z,77.00
2019-01-31T23:57:47.051Z,77.10
